createdAt,value
2022-10-01T00:00:00.644Z,89.81
2022-10-01T00:02:38.170Z,89.92
2022-10-01T00:05:13.486Z,90.06
2022-10-01T00:07:46.972Z,89.55
2022-10-01T00:10:19.653Z,89.99
2022-10-01T00:12:52.136Z,90.51
2022-10-01T00:15:28.807Z,90.74
2022-10-01T00:18:02.022Z,90.61
2022-10-01T00:20:35.210Z,90.89
2022-10-01T00:23:07.748Z,90.90
2022-10-01T00:25:41.373Z,90.43
2022-10-01T00:28:13.894Z,90.99
2022-10-01T00:30:47.996Z,90.74
2022-10-01T00:33:20.468Z,90.43
2022-10-01T00:35:56.948Z,89.87
2022-10-01T00:38:30.938Z,90.31
2022-10-01T00:41:05.028Z,90.49
2022-10-01T00:43:46.360Z,89.74
2022-10-01T00:46:29.531Z,89.90
2022-10-01T00:49:21.381Z,90.10
2022-10-01T00:52:05.825Z,89.76
2022-10-01T00:54:49.316Z,90.08
2022-10-01T00:57:26.446Z,90.22
2022-10-01T01:00:05.979Z,90.02
2022-10-01T01:02:39.625Z,90.81
2022-10-01T01:05:13.453Z,90.73
2022-10-01T01:07:50.230Z,91.11
2022-10-01T01:10:54.124Z,91.28
2022-10-01T01:13:53.889Z,91.70
2022-10-01T01:16:57.856Z,92.27
2022-10-01T01:20:06.097Z,92.29
2022-10-01T01:22:53.385Z,92.97
2022-10-01T01:25:42.287Z,93.29
2022-10-01T01:28:25.685Z,93.30
2022-10-01T01:31:07.442Z,93.19
2022-10-01T01:33:46.099Z,93.26
2022-10-01T01:36:28.607Z,93.39
2022-10-01T01:39:08.249Z,93.42
2022-10-01T01:41:51.544Z,94.03
2022-10-01T01:44:31.557Z,94.05
2022-10-01T01:47:10.509Z,94.04
2022-10-01T01:49:43.767Z,94.41
2022-10-01T01:52:17.367Z,94.36
2022-10-01T01:54:51.560Z,94.33
2022-10-01T01:57:24.271Z,94.26
2022-10-01T01:59:56.760Z,94.14
2022-10-01T02:02:35.882Z,94.41
2022-10-01T02:05:15.936Z,95.03
2022-10-01T02:08:16.399Z,95.22
2022-10-01T02:11:13.466Z,95.33
2022-10-01T02:14:28.099Z,94.67
2022-10-01T02:17:13.144Z,95.33
2022-10-01T02:20:11.985Z,95.46
2022-10-01T02:22:54.843Z,95.48
2022-10-01T02:25:37.518Z,95.55
2022-10-01T02:28:18.743Z,95.51
2022-10-01T02:30:58.346Z,95.46
2022-10-01T02:33:36.473Z,95.30
2022-10-01T02:36:13.215Z,95.22
2022-10-01T02:38:50.661Z,95.56
2022-10-01T02:41:33.806Z,95.34
2022-10-01T02:44:18.433Z,95.33
2022-10-01T02:47:23.793Z,95.24
2022-10-01T02:49:56.293Z,95.10
2022-10-01T02:52:58.664Z,95.37
2022-10-01T02:55:37.804Z,95.03
2022-10-01T02:58:11.519Z,95.30
2022-10-01T03:00:44.077Z,95.02
2022-10-01T03:03:16.612Z,95.07
2022-10-01T03:05:49.124Z,95.07
2022-10-01T03:08:21.608Z,94.50
2022-10-01T03:10:54.074Z,94.90
2022-10-01T03:13:27.043Z,94.72
2022-10-01T03:15:59.773Z,95.04
2022-10-01T03:18:32.242Z,95.07
2022-10-01T03:21:04.771Z,95.01
2022-10-01T03:23:37.335Z,95.05
2022-10-01T03:26:09.819Z,94.99
2022-10-01T03:28:42.301Z,95.04
2022-10-01T03:31:14.880Z,94.72
2022-10-01T03:33:47.369Z,95.06
2022-10-01T03:36:19.840Z,95.03
2022-10-01T03:38:52.450Z,94.95
2022-10-01T03:41:24.974Z,94.76
2022-10-01T03:44:00.509Z,94.77
2022-10-01T03:46:33.245Z,94.57
2022-10-01T03:49:05.985Z,94.39
2022-10-01T03:51:38.618Z,94.24
2022-10-01T03:54:11.179Z,94.50
2022-10-01T03:56:43.656Z,94.79
2022-10-01T03:59:16.165Z,94.64
2022-10-01T04:01:48.852Z,94.82
2022-10-01T04:04:21.521Z,94.42
2022-10-01T04:06:53.997Z,94.44
2022-10-01T04:09:26.522Z,94.51
2022-10-01T04:11:59.753Z,94.53
2022-10-01T04:14:32.277Z,94.26
2022-10-01T04:17:04.757Z,94.23
2022-10-01T04:19:37.218Z,94.22
2022-10-01T04:22:09.681Z,94.02
2022-10-01T04:24:42.182Z,94.26
2022-10-01T04:27:15.320Z,94.27
2022-10-01T04:29:47.793Z,94.14
2022-10-01T04:32:21.497Z,93.98
2022-10-01T04:34:54.042Z,94.01
2022-10-01T04:37:29.378Z,94.03
2022-10-01T04:40:02.040Z,94.19
2022-10-01T04:42:34.489Z,94.30
2022-10-01T04:45:08.826Z,94.24
2022-10-01T04:47:52.790Z,94.04
2022-10-01T04:50:27.318Z,94.37
2022-10-01T04:53:00.113Z,94.37
2022-10-01T04:55:32.620Z,94.36
2022-10-01T04:58:05.117Z,94.28
2022-10-01T05:00:37.736Z,94.30
2022-10-01T05:03:10.785Z,94.04
2022-10-01T05:05:43.282Z,94.01
2022-10-01T05:08:15.876Z,94.21
2022-10-01T05:10:48.411Z,94.28
2022-10-01T05:13:20.874Z,94.29
2022-10-01T05:15:53.689Z,94.20
2022-10-01T05:18:26.427Z,94.33
2022-10-01T05:20:59.169Z,94.48
2022-10-01T05:23:32.779Z,94.21
2022-10-01T05:26:05.742Z,94.51
2022-10-01T05:28:44.649Z,94.65
2022-10-01T05:31:18.663Z,94.70
2022-10-01T05:33:51.232Z,94.65
2022-10-01T05:36:23.714Z,94.68
2022-10-01T05:38:56.232Z,94.62
2022-10-01T05:41:28.697Z,94.75
2022-10-01T05:44:02.926Z,95.11
2022-10-01T05:46:35.426Z,95.00
2022-10-01T05:49:08.287Z,95.04
2022-10-01T05:51:40.741Z,95.10
2022-10-01T05:54:13.798Z,95.13
2022-10-01T05:56:46.265Z,95.05
2022-10-01T05:59:18.781Z,95.22
2022-10-01T06:01:51.419Z,95.31
2022-10-01T06:04:24.205Z,95.01
2022-10-01T06:06:56.725Z,95.43
2022-10-01T06:09:29.204Z,95.20
2022-10-01T06:12:02.587Z,95.21
2022-10-01T06:14:35.316Z,95.51
2022-10-01T06:17:07.820Z,95.35
2022-10-01T06:19:40.305Z,95.13
2022-10-01T06:22:12.779Z,95.48
2022-10-01T06:24:45.284Z,95.90
2022-10-01T06:27:18.520Z,96.04
2022-10-01T06:29:51.007Z,96.38
2022-10-01T06:32:23.512Z,96.29
2022-10-01T06:34:55.984Z,96.26
2022-10-01T06:37:28.698Z,96.21
2022-10-01T06:40:01.309Z,96.17
2022-10-01T06:42:33.804Z,96.21
2022-10-01T06:45:06.873Z,96.17
2022-10-01T06:47:39.370Z,95.98
2022-10-01T06:50:11.854Z,95.77
2022-10-01T06:52:50.126Z,95.47
2022-10-01T06:55:28.971Z,95.25
2022-10-01T06:58:17.588Z,94.95
2022-10-01T07:00:50.861Z,94.39
2022-10-01T07:03:23.394Z,94.27
2022-10-01T07:06:03.284Z,94.01
2022-10-01T07:08:35.842Z,93.93
2022-10-01T07:11:08.318Z,93.96
2022-10-01T07:13:40.761Z,94.07
2022-10-01T07:16:13.290Z,93.94
2022-10-01T07:18:45.887Z,93.99
2022-10-01T07:21:18.407Z,93.61
2022-10-01T07:23:51.070Z,93.38
2022-10-01T07:26:23.577Z,93.07
2022-10-01T07:28:56.097Z,92.57
2022-10-01T07:31:28.752Z,92.33
2022-10-01T07:34:01.293Z,92.55
2022-10-01T07:36:34.031Z,92.56
2022-10-01T07:39:06.503Z,93.00
2022-10-01T07:41:38.991Z,93.41
2022-10-01T07:44:14.357Z,93.73
2022-10-01T07:46:47.190Z,94.14
2022-10-01T07:49:20.375Z,94.51
2022-10-01T07:51:54.824Z,94.65
2022-10-01T07:54:27.432Z,94.99
2022-10-01T07:56:59.945Z,94.89
2022-10-01T07:59:33.146Z,95.11
2022-10-01T08:02:06.116Z,94.97
2022-10-01T08:04:57.557Z,95.10
2022-10-01T08:07:32.844Z,95.06
2022-10-01T08:10:05.877Z,95.00
2022-10-01T08:12:38.594Z,94.89
2022-10-01T08:15:15.171Z,94.49
2022-10-01T08:17:47.654Z,94.03
2022-10-01T08:20:21.372Z,93.47
2022-10-01T08:22:53.963Z,92.99
2022-10-01T08:25:26.412Z,92.85
2022-10-01T08:28:00.232Z,92.86
2022-10-01T08:30:33.182Z,93.04
2022-10-01T08:33:06.642Z,92.99
2022-10-01T08:35:40.866Z,92.38
2022-10-01T08:38:14.446Z,91.71
2022-10-01T08:40:51.000Z,91.69
2022-10-01T08:43:38.709Z,90.95
2022-10-01T08:46:18.244Z,90.65
2022-10-01T08:49:08.141Z,90.63
2022-10-01T08:52:06.352Z,90.11
2022-10-01T08:54:59.138Z,89.66
2022-10-01T08:57:41.998Z,89.96
2022-10-01T09:00:17.569Z,89.92
2022-10-01T09:02:52.893Z,89.54
2022-10-01T09:05:55.640Z,90.88
2022-10-01T09:08:56.977Z,91.00
2022-10-01T09:11:59.050Z,90.77
2022-10-01T09:15:01.727Z,90.25
2022-10-01T09:17:56.320Z,89.88
2022-10-01T09:20:58.297Z,89.50
2022-10-01T09:23:42.847Z,88.65
2022-10-01T09:26:15.391Z,88.34
2022-10-01T09:28:53.831Z,88.21
2022-10-01T09:31:42.736Z,87.70
2022-10-01T09:34:43.271Z,87.26
2022-10-01T09:37:49.477Z,86.84
2022-10-01T09:40:38.475Z,84.68
2022-10-01T09:43:12.968Z,84.32
2022-10-01T09:45:47.191Z,83.16
2022-10-01T09:48:38.281Z,81.32
2022-10-01T09:51:18.285Z,82.83
2022-10-01T09:54:13.009Z,82.81
2022-10-01T09:56:54.905Z,82.67
2022-10-01T09:59:37.855Z,83.45
2022-10-01T10:02:22.838Z,82.01
2022-10-01T10:05:13.926Z,81.38
2022-10-01T10:08:00.001Z,80.85
2022-10-01T10:10:36.825Z,81.29
2022-10-01T10:13:10.084Z,83.60
2022-10-01T10:15:59.861Z,84.88
2022-10-01T10:18:35.855Z,87.12
2022-10-01T10:21:20.615Z,87.11
2022-10-01T10:24:01.153Z,86.91
2022-10-01T10:26:41.029Z,87.16
2022-10-01T10:29:34.178Z,87.29
2022-10-01T10:32:28.370Z,87.40
2022-10-01T10:35:09.967Z,86.84
2022-10-01T10:37:49.931Z,86.14
2022-10-01T10:40:29.555Z,86.11
2022-10-01T10:43:02.421Z,84.17
2022-10-01T10:45:39.758Z,82.60
2022-10-01T10:48:18.738Z,82.07
2022-10-01T10:51:01.676Z,82.72
2022-10-01T10:53:46.055Z,80.17
2022-10-01T10:56:23.064Z,79.72
2022-10-01T10:59:08.287Z,80.97
2022-10-01T11:01:43.134Z,79.36
2022-10-01T11:04:50.485Z,78.05
2022-10-01T11:07:26.768Z,75.89
2022-10-01T11:10:27.794Z,76.33
2022-10-01T11:13:53.305Z,75.39
2022-10-01T11:16:40.932Z,71.38
2022-10-01T11:19:41.534Z,74.05
2022-10-01T11:22:44.943Z,71.43
2022-10-01T11:25:43.709Z,71.02
2022-10-01T11:28:50.832Z,69.78
2022-10-01T11:32:05.136Z,71.91
2022-10-01T11:35:14.638Z,72.07
2022-10-01T11:37:59.977Z,72.39
2022-10-01T11:40:40.865Z,70.99
2022-10-01T11:43:18.509Z,69.38
2022-10-01T11:46:42.113Z,68.42
2022-10-01T11:49:26.721Z,69.28
2022-10-01T11:52:18.220Z,69.79
2022-10-01T11:55:29.493Z,70.23
2022-10-01T11:58:32.898Z,67.61
2022-10-01T12:01:28.351Z,67.52
2022-10-01T12:04:07.247Z,68.22
2022-10-01T12:06:56.060Z,67.97
2022-10-01T12:10:25.679Z,67.18
2022-10-01T12:13:07.373Z,67.01
2022-10-01T12:15:51.880Z,68.54
2022-10-01T12:18:36.218Z,67.23
2022-10-01T12:21:23.549Z,66.63
2022-10-01T12:24:14.255Z,66.91
2022-10-01T12:27:02.200Z,66.85
2022-10-01T12:29:43.590Z,67.39
2022-10-01T12:32:47.189Z,66.16
2022-10-01T12:35:57.844Z,67.23
2022-10-01T12:39:03.380Z,66.64
2022-10-01T12:42:14.981Z,65.85
2022-10-01T12:45:20.347Z,65.21
2022-10-01T12:48:25.698Z,66.47
2022-10-01T12:51:35.981Z,66.88
2022-10-01T12:54:48.521Z,66.77
2022-10-01T12:57:33.061Z,65.23
2022-10-01T13:00:27.295Z,64.53
2022-10-01T13:03:37.361Z,63.42
2022-10-01T13:06:32.152Z,63.08
2022-10-01T13:09:29.906Z,63.82
2022-10-01T13:12:32.930Z,61.93
2022-10-01T13:15:22.423Z,60.18
2022-10-01T13:18:15.620Z,60.20
2022-10-01T13:21:13.251Z,59.98
2022-10-01T13:24:12.197Z,60.94
2022-10-01T13:27:28.294Z,60.75
2022-10-01T13:30:21.562Z,60.06
2022-10-01T13:33:00.830Z,58.44
2022-10-01T13:35:39.577Z,56.52
2022-10-01T13:38:29.229Z,57.05
2022-10-01T13:41:06.231Z,57.19
2022-10-01T13:43:39.454Z,57.99
2022-10-01T13:46:12.896Z,57.54
2022-10-01T13:48:49.178Z,57.73
2022-10-01T13:51:21.830Z,56.89
2022-10-01T13:54:02.149Z,56.71
2022-10-01T13:56:38.067Z,56.53
2022-10-01T13:59:39.825Z,57.31
2022-10-01T14:02:36.978Z,57.69
2022-10-01T14:05:28.903Z,58.34
2022-10-01T14:08:25.287Z,58.45
2022-10-01T14:11:29.061Z,57.34
2022-10-01T14:14:46.409Z,56.57
2022-10-01T14:17:24.739Z,58.77
2022-10-01T14:20:00.555Z,58.83
2022-10-01T14:22:50.968Z,59.77
2022-10-01T14:25:57.573Z,60.26
2022-10-01T14:28:38.207Z,60.80
2022-10-01T14:31:35.643Z,61.31
2022-10-01T14:34:39.876Z,61.62
2022-10-01T14:37:18.325Z,61.01
2022-10-01T14:40:20.953Z,61.20
2022-10-01T14:43:15.122Z,61.11
2022-10-01T14:46:06.721Z,61.13
2022-10-01T14:48:40.349Z,60.73
2022-10-01T14:51:30.673Z,59.37
2022-10-01T14:54:03.470Z,58.63
2022-10-01T14:56:37.901Z,58.65
2022-10-01T14:59:39.585Z,57.17
2022-10-01T15:02:25.171Z,58.53
2022-10-01T15:04:58.166Z,57.08
2022-10-01T15:07:36.781Z,59.11
2022-10-01T15:10:09.560Z,59.15
2022-10-01T15:12:43.162Z,59.55
2022-10-01T15:15:26.392Z,60.15
2022-10-01T15:17:59.097Z,60.75
2022-10-01T15:20:32.042Z,60.92
2022-10-01T15:23:06.083Z,61.80
2022-10-01T15:25:38.611Z,62.08
2022-10-01T15:28:25.073Z,61.92
2022-10-01T15:31:00.971Z,62.25
2022-10-01T15:33:37.927Z,62.29
2022-10-01T15:36:18.412Z,62.27
2022-10-01T15:38:51.563Z,62.25
2022-10-01T15:41:32.281Z,61.93
2022-10-01T15:44:06.436Z,62.49
2022-10-01T15:46:39.341Z,62.39
2022-10-01T15:49:19.223Z,62.03
2022-10-01T15:52:20.077Z,62.72
2022-10-01T15:54:59.995Z,62.83
2022-10-01T15:57:33.558Z,63.62
2022-10-01T16:00:07.091Z,64.30
2022-10-01T16:02:39.823Z,64.63
2022-10-01T16:05:20.468Z,64.78
2022-10-01T16:07:58.434Z,64.45
2022-10-01T16:10:37.803Z,64.41
2022-10-01T16:13:38.683Z,64.78
2022-10-01T16:16:19.352Z,64.82
2022-10-01T16:19:19.082Z,64.94
2022-10-01T16:22:19.235Z,65.22
2022-10-01T16:25:09.269Z,66.35
2022-10-01T16:28:04.158Z,66.93
2022-10-01T16:30:36.839Z,67.68
2022-10-01T16:33:10.294Z,67.65
2022-10-01T16:35:45.488Z,68.26
2022-10-01T16:38:17.985Z,68.22
2022-10-01T16:40:53.489Z,69.54
2022-10-01T16:43:25.996Z,69.33
2022-10-01T16:45:59.251Z,69.83
2022-10-01T16:48:31.785Z,69.80
2022-10-01T16:51:04.384Z,70.44
2022-10-01T16:53:38.121Z,70.74
2022-10-01T16:56:10.877Z,71.24
2022-10-01T16:58:44.270Z,71.35
2022-10-01T17:01:16.896Z,71.77
2022-10-01T17:03:49.451Z,71.90
2022-10-01T17:06:21.977Z,72.39
2022-10-01T17:08:54.601Z,72.76
2022-10-01T17:11:29.931Z,73.25
2022-10-01T17:14:07.003Z,73.30
2022-10-01T17:16:40.155Z,73.71
2022-10-01T17:19:14.338Z,73.81
2022-10-01T17:21:47.042Z,73.57
2022-10-01T17:24:19.716Z,73.24
2022-10-01T17:26:52.492Z,73.15
2022-10-01T17:29:24.984Z,73.24
2022-10-01T17:31:57.839Z,73.13
2022-10-01T17:34:30.619Z,73.26
2022-10-01T17:37:03.380Z,73.35
2022-10-01T17:39:36.192Z,74.08
2022-10-01T17:42:11.773Z,74.67
2022-10-01T17:44:45.233Z,75.11
2022-10-01T17:47:18.209Z,75.55
2022-10-01T17:49:50.993Z,76.11
2022-10-01T17:52:23.635Z,76.81
2022-10-01T17:54:56.299Z,77.38
2022-10-01T17:57:28.818Z,77.92
2022-10-01T18:00:01.924Z,78.47
2022-10-01T18:02:42.101Z,78.80
2022-10-01T18:05:15.403Z,79.18
2022-10-01T18:07:47.914Z,79.97
2022-10-01T18:10:20.414Z,80.00
2022-10-01T18:12:53.026Z,80.11
2022-10-01T18:15:25.599Z,79.97
2022-10-01T18:19:03.600Z,80.70
2022-10-01T18:20:53.353Z,80.87
2022-10-01T18:23:31.826Z,81.27
2022-10-01T18:26:05.294Z,81.86
2022-10-01T18:28:38.118Z,81.42
2022-10-01T18:31:13.616Z,81.32
2022-10-01T18:33:57.754Z,81.01
2022-10-01T18:36:54.899Z,80.73
2022-10-01T18:39:41.004Z,80.58
2022-10-01T18:42:30.010Z,80.44
2022-10-01T18:45:14.688Z,80.36
2022-10-01T18:48:11.715Z,80.51
2022-10-01T18:51:19.281Z,80.85
2022-10-01T18:54:38.934Z,80.84
2022-10-01T18:57:42.037Z,81.00
2022-10-01T19:00:23.183Z,80.89
2022-10-01T19:03:35.885Z,81.17
2022-10-01T19:06:39.680Z,81.56
2022-10-01T19:09:44.699Z,82.02
2022-10-01T19:12:26.919Z,82.11
2022-10-01T19:15:16.036Z,82.61
2022-10-01T19:18:38.722Z,82.54
2022-10-01T19:21:29.234Z,82.89
2022-10-01T19:24:51.966Z,83.62
2022-10-01T19:27:58.345Z,83.83
2022-10-01T19:31:15.920Z,84.09
2022-10-01T19:34:25.193Z,84.71
2022-10-01T19:37:10.714Z,84.76
2022-10-01T19:39:51.475Z,85.07
2022-10-01T19:42:33.614Z,85.49
2022-10-01T19:45:38.197Z,85.82
2022-10-01T19:48:23.853Z,86.32
2022-10-01T19:51:07.953Z,86.69
2022-10-01T19:53:50.853Z,86.69
2022-10-01T19:56:30.192Z,86.99
2022-10-01T19:59:16.115Z,87.09
2022-10-01T20:02:01.466Z,87.09
2022-10-01T20:04:58.556Z,87.25
2022-10-01T20:08:07.813Z,86.92
2022-10-01T20:11:01.743Z,86.78
2022-10-01T20:14:07.674Z,86.74
2022-10-01T20:16:50.353Z,86.34
2022-10-01T20:19:38.985Z,86.58
2022-10-01T20:22:54.453Z,86.50
2022-10-01T20:25:55.995Z,86.56
2022-10-01T20:29:05.340Z,86.49
2022-10-01T20:32:09.492Z,86.81
2022-10-01T20:34:57.131Z,86.80
2022-10-01T20:37:45.210Z,86.89
2022-10-01T20:40:26.817Z,87.10
2022-10-01T20:43:13.926Z,87.40
2022-10-01T20:45:51.586Z,87.08
2022-10-01T20:48:37.205Z,87.22
2022-10-01T20:51:32.615Z,86.78
2022-10-01T20:54:16.144Z,86.67
2022-10-01T20:57:12.735Z,86.83
2022-10-01T20:59:52.483Z,86.34
2022-10-01T21:02:42.674Z,86.26
2022-10-01T21:05:27.084Z,86.70
2022-10-01T21:08:06.713Z,86.31
2022-10-01T21:10:56.224Z,86.56
2022-10-01T21:13:31.661Z,86.82
2022-10-01T21:17:00.649Z,87.03
2022-10-01T21:20:09.018Z,87.13
2022-10-01T21:23:03.154Z,87.05
2022-10-01T21:26:09.683Z,87.19
2022-10-01T21:29:22.050Z,87.24
2022-10-01T21:32:08.162Z,87.37
2022-10-01T21:34:40.567Z,87.21
2022-10-01T21:37:23.035Z,87.14
2022-10-01T21:40:32.914Z,87.35
2022-10-01T21:43:40.209Z,86.96
2022-10-01T21:46:40.062Z,87.25
2022-10-01T21:49:43.463Z,87.29
2022-10-01T21:52:31.092Z,87.40
2022-10-01T21:55:25.774Z,87.33
2022-10-01T21:58:34.427Z,88.04
2022-10-01T22:01:48.867Z,87.93
2022-10-01T22:04:39.310Z,88.01
2022-10-01T22:07:36.853Z,88.03
2022-10-01T22:10:20.204Z,88.33
2022-10-01T22:13:00.349Z,88.63
2022-10-01T22:15:40.475Z,89.06
2022-10-01T22:18:33.920Z,89.19
2022-10-01T22:21:17.385Z,89.22
2022-10-01T22:24:01.889Z,89.50
2022-10-01T22:26:42.041Z,89.44
2022-10-01T22:29:42.310Z,89.66
2022-10-01T22:32:20.860Z,90.15
2022-10-01T22:35:03.101Z,90.56
2022-10-01T22:37:57.086Z,90.79
2022-10-01T22:40:39.582Z,91.29
2022-10-01T22:43:14.321Z,91.13
2022-10-01T22:46:27.633Z,91.41
2022-10-01T22:49:11.846Z,91.86
2022-10-01T22:52:48.243Z,91.55
2022-10-01T22:55:44.977Z,92.11
2022-10-01T22:59:03.211Z,92.14
2022-10-01T23:01:48.971Z,92.36
2022-10-01T23:04:55.842Z,92.81
2022-10-01T23:07:46.673Z,92.53
2022-10-01T23:10:49.793Z,92.68
2022-10-01T23:14:01.880Z,92.79
2022-10-01T23:17:06.300Z,92.81
2022-10-01T23:19:57.769Z,92.84
2022-10-01T23:22:42.419Z,92.80
2022-10-01T23:25:56.549Z,92.88
2022-10-01T23:29:01.136Z,92.92
2022-10-01T23:31:46.030Z,93.30
2022-10-01T23:34:59.110Z,93.43
2022-10-01T23:38:13.888Z,93.69
2022-10-01T23:40:51.667Z,93.76
2022-10-01T23:43:35.779Z,94.09
2022-10-01T23:46:17.578Z,94.08
2022-10-01T23:48:59.737Z,93.99
2022-10-01T23:51:46.611Z,93.70
2022-10-01T23:54:56.550Z,94.03
2022-10-01T23:57:38.355Z,94.00
